Time;durP1;ratioP1;P1;durP2;ratioP2;P2;SDS_P1;SDS_P2;PMS_P1;PMS_P2;Temp;Humidity;BMP_temperature;BMP_pressure;BME280_temperature;BME280_humidity;BME280_pressure;Samples;Min_cycle;Max_cycle;Signal;HPM_P1;HPM_P2
2021/12/10 05:32:17;;;;;;;;;2.75;2.00;;;;;9.15;74.46;98727.41;5049984;23;46414;-48
2021/12/10 05:34:43;;;;;;;;;3.00;1.00;;;;;9.17;74.44;98728.16;4960029;28;45370;-47
2021/12/10 05:37:09;;;;;;;;;2.00;0.75;;;;;9.18;74.68;98735.22;4960486;28;46438;-49
2021/12/10 05:39:35;;;;;;;;;6.50;2.75;;;;;9.14;74.62;98741.75;4960056;28;46277;-47
2021/12/10 05:42:03;;;;;;;;;8.25;1.00;;;;;9.10;74.17;98729.59;4960282;28;45206;-48
2021/12/10 05:44:29;;;;;;;;;2.50;1.00;;;;;9.10;74.38;98733.06;4960371;28;45774;-46
2021/12/10 05:46:54;;;;;;;;;2.50;2.00;;;;;9.15;74.89;98755.97;4960026;28;45439;-47
2021/12/10 05:49:20;;;;;;;;;1.00;1.00;;;;;9.08;75.03;98745.72;4960048;28;46223;-47
2021/12/10 05:51:45;;;;;;;;;2.50;1.00;;;;;9.07;75.11;98744.00;4960394;28;45342;-47
2021/12/10 05:54:11;;;;;;;;;3.75;1.75;;;;;9.15;75.03;98764.00;4960040;28;45365;-47
2021/12/10 05:56:36;;;;;;;;;4.50;3.00;;;;;9.12;74.36;98751.69;4960291;28;45331;-46
2021/12/10 05:59:04;;;;;;;;;2.50;1.00;;;;;9.17;74.83;98762.91;4959894;28;46050;-48
2021/12/10 06:01:29;;;;;;;;;4.00;2.00;;;;;9.11;74.74;98755.31;4959954;28;45311;-46
2021/12/10 06:03:54;;;;;;;;;3.75;1.75;;;;;9.12;74.69;98759.72;4960040;28;45228;-46
2021/12/10 06:06:23;;;;;;;;;3.00;1.00;;;;;9.13;74.42;98771.25;4960046;28;45570;-46
2021/12/10 06:08:50;;;;;;;;;4.25;2.00;;;;;9.07;75.41;98789.44;4959755;28;46191;-49
2021/12/10 06:11:17;;;;;;;;;5.25;1.50;;;;;9.02;74.92;98769.34;4959913;28;45478;-47
2021/12/10 06:13:44;;;;;;;;;5.25;2.25;;;;;9.11;74.79;98790.94;4960030;28;45468;-46
2021/12/10 06:16:09;;;;;;;;;3.00;0.00;;;;;9.06;74.71;98790.41;4959703;28;45329;-46
2021/12/10 06:18:35;;;;;;;;;2.00;1.25;;;;;9.05;74.60;98790.50;4959477;28;45328;-47
2021/12/10 06:21:00;;;;;;;;;4.00;0.00;;;;;9.04;74.51;98808.38;4959882;28;45402;-46
2021/12/10 06:23:26;;;;;;;;;2.75;2.00;;;;;9.01;74.83;98811.28;4959488;28;45226;-47
2021/12/10 06:25:51;;;;;;;;;2.75;2.00;;;;;9.00;75.39;98809.56;4959819;28;45177;-47
2021/12/10 06:28:18;;;;;;;;;1.25;1.00;;;;;9.00;75.66;98822.94;4959498;28;46400;-50
2021/12/10 06:30:45;;;;;;;;;4.25;1.00;;;;;8.96;74.93;98812.53;4959505;28;45297;-49
2021/12/10 06:33:14;;;;;;;;;3.50;0.25;;;;;9.00;75.02;98832.75;4959701;28;45460;-49
2021/12/10 06:35:42;;;;;;;;;4.50;2.00;;;;;8.96;75.60;98833.91;4959996;28;45247;-47
2021/12/10 06:38:09;;;;;;;;;2.00;2.00;;;;;8.88;76.40;98836.28;4959372;28;46599;-48
2021/12/10 06:40:36;;;;;;;;;3.25;1.25;;;;;8.88;76.14;98836.28;4959814;28;45370;-48
2021/12/10 06:43:02;;;;;;;;;1.25;1.25;;;;;8.86;77.24;98843.53;4959543;28;45296;-46
2021/12/10 06:45:29;;;;;;;;;3.00;1.00;;;;;8.82;77.56;98848.25;4959888;28;45328;-47
2021/12/10 06:48:01;;;;;;;;;2.00;0.00;;;;;8.70;77.08;98851.75;4962177;28;46321;-46
2021/12/10 06:50:30;;;;;;;;;2.75;1.00;;;;;8.70;76.83;98873.13;4962719;28;45409;-52
2021/12/10 06:52:57;;;;;;;;;1.00;1.00;;;;;8.69;77.14;98871.41;4962801;28;45309;-47
2021/12/10 06:55:23;;;;;;;;;1.00;0.00;;;;;8.62;75.65;98864.78;4962860;28;45532;-47
2021/12/10 06:57:49;;;;;;;;;2.25;0.50;;;;;8.61;75.54;98893.28;4962598;28;45428;-48
2021/12/10 07:00:40;;;;;;;;;0.50;0.50;;;;;8.67;75.44;98898.25;4962697;28;45759;-42
2021/12/10 07:03:06;;;;;;;;;0.00;0.00;;;;;8.66;75.73;98909.03;4962604;28;45224;-47
2021/12/10 07:05:31;;;;;;;;;0.00;0.00;;;;;8.65;74.73;98912.66;4947812;28;45168;-48
2021/12/10 07:07:56;;;;;;;;;2.50;0.00;;;;;8.61;74.46;98919.16;4942743;28;46058;-47
2021/12/10 07:10:22;;;;;;;;;1.50;0.00;;;;;8.56;74.87;98916.81;4957250;28;45225;-47
2021/12/10 07:12:48;;;;;;;;;0.00;0.00;;;;;8.55;74.98;98920.44;4963044;28;45271;-48
2021/12/10 07:15:15;;;;;;;;;1.25;0.00;;;;;8.54;74.61;98949.91;4962340;28;45778;-47
2021/12/10 07:17:44;;;;;;;;;1.50;1.00;;;;;8.52;74.86;98939.31;4962784;28;46537;-47
2021/12/10 07:20:12;;;;;;;;;2.00;0.00;;;;;8.53;74.54;98959.72;4962003;28;45248;-47
2021/12/10 07:22:38;;;;;;;;;2.00;1.00;;;;;8.52;74.97;98959.81;4962545;28;45180;-47
2021/12/10 07:25:05;;;;;;;;;1.00;1.00;;;;;8.49;75.81;98952.03;4961861;28;45389;-49
2021/12/10 07:27:30;;;;;;;;;2.00;0.00;;;;;8.57;76.10;98979.09;4962017;28;46212;-48
2021/12/10 07:29:56;;;;;;;;;3.75;0.50;;;;;8.56;75.70;98975.56;4962078;28;45292;-48
2021/12/10 07:32:21;;;;;;;;;1.50;0.00;;;;;8.54;76.48;98977.47;4961983;28;45451;-47
2021/12/10 07:34:46;;;;;;;;;1.00;0.50;;;;;8.52;76.53;98986.53;4962064;28;45315;-47
2021/12/10 07:37:12;;;;;;;;;1.25;1.00;;;;;8.54;76.73;99006.00;4959060;28;46006;-48
2021/12/10 07:39:37;;;;;;;;;6.00;1.00;;;;;8.42;76.79;99007.63;4958161;28;45368;-49
2021/12/10 07:42:07;;;;;;;;;1.00;0.00;;;;;8.32;77.29;99007.41;4959609;28;45481;-46
2021/12/10 07:44:33;;;;;;;;;1.00;1.00;;;;;8.32;77.17;99019.88;4961536;28;45996;-49
2021/12/10 07:47:01;;;;;;;;;2.50;1.00;;;;;8.28;76.10;99058.38;4959517;28;46357;-48
2021/12/10 07:49:30;;;;;;;;;3.50;1.00;;;;;8.21;76.29;99025.88;4957801;28;45584;-46
2021/12/10 07:51:57;;;;;;;;;0.00;0.00;;;;;8.28;76.13;99042.34;4961695;28;45472;-47
2021/12/10 07:54:23;;;;;;;;;0.75;0.75;;;;;8.30;75.06;99043.13;4961444;28;45834;-48
2021/12/10 07:56:50;;;;;;;;;1.50;0.25;;;;;8.28;75.07;99048.53;4961880;28;46584;-50
2021/12/10 07:59:16;;;;;;;;;0.25;0.25;;;;;8.25;75.58;99055.91;4961454;28;45433;-47
2021/12/10 08:01:41;;;;;;;;;1.00;1.00;;;;;8.25;75.25;99043.38;4961726;28;45421;-47
2021/12/10 08:04:07;;;;;;;;;2.00;0.00;;;;;8.23;74.68;99053.34;4961357;28;45459;-47
2021/12/10 08:06:34;;;;;;;;;2.75;0.00;;;;;8.21;74.47;99057.03;4961603;28;46059;-46
2021/12/10 08:09:00;;;;;;;;;2.00;0.50;;;;;8.15;74.64;99066.31;4961178;28;45493;-48
2021/12/10 08:11:26;;;;;;;;;0.00;0.00;;;;;8.16;73.97;99084.03;4961652;28;45313;-48
2021/12/10 08:13:52;;;;;;;;;1.00;0.00;;;;;8.18;74.00;99074.09;4965872;28;45239;-52
2021/12/10 08:16:18;;;;;;;;;0.00;0.00;;;;;8.14;72.51;99095.75;4969877;28;46420;-48
2021/12/10 08:18:45;;;;;;;;;0.00;0.00;;;;;8.11;73.02;99111.94;4961461;28;45630;-48
2021/12/10 08:21:11;;;;;;;;;0.00;0.00;;;;;8.10;71.55;99118.22;4961679;28;45334;-49
2021/12/10 08:23:38;;;;;;;;;0.50;0.25;;;;;8.12;71.30;99119.88;4960990;28;45539;-48
2021/12/10 08:26:06;;;;;;;;;2.50;1.00;;;;;8.09;69.49;99124.53;4961171;28;46325;-50
2021/12/10 08:28:33;;;;;;;;;2.00;0.00;;;;;7.98;70.30;99135.88;4960995;28;45215;-46
2021/12/10 08:31:00;;;;;;;;;0.00;0.00;;;;;7.97;69.30;99126.16;4961041;28;45735;-48
2021/12/10 08:33:26;;;;;;;;;0.00;0.00;;;;;7.92;68.12;99144.22;4961013;28;45950;-49
2021/12/10 08:35:56;;;;;;;;;0.00;0.00;;;;;7.87;69.35;99125.84;4961356;28;45382;-48
2021/12/10 08:38:21;;;;;;;;;2.00;0.00;;;;;7.90;68.12;99133.69;4960837;28;46205;-46
2021/12/10 08:40:50;;;;;;;;;1.00;0.00;;;;;7.95;68.57;99171.59;4961028;28;45218;-47
2021/12/10 08:43:16;;;;;;;;;0.00;0.00;;;;;7.95;68.74;99168.94;4961047;28;45328;-48
2021/12/10 08:45:43;;;;;;;;;0.75;0.00;;;;;7.93;68.15;99180.63;4960890;28;45323;-47
2021/12/10 08:48:08;;;;;;;;;3.25;0.00;;;;;7.79;68.70;99168.13;4960760;28;45397;-48
2021/12/10 08:50:35;;;;;;;;;1.00;0.00;;;;;7.82;69.05;99175.97;4961034;28;45388;-47
2021/12/10 08:53:06;;;;;;;;;0.00;0.00;;;;;7.81;68.82;99184.06;4960741;28;45316;-48
2021/12/10 08:55:35;;;;;;;;;1.00;1.00;;;;;7.85;69.42;99183.78;4960834;28;45393;-46
2021/12/10 08:58:01;;;;;;;;;0.00;0.00;;;;;7.89;69.33;99187.13;4960826;28;45473;-48
2021/12/10 09:00:27;;;;;;;;;2.75;1.00;;;;;7.91;69.32;99201.25;4960813;28;45440;-47
2021/12/10 09:02:55;;;;;;;;;0.00;0.00;;;;;7.84;69.60;99190.06;4960778;28;45264;-47
2021/12/10 09:05:21;;;;;;;;;1.50;1.00;;;;;7.84;68.97;99202.53;4960551;28;45343;-48
2021/12/10 09:07:46;;;;;;;;;1.25;0.00;;;;;7.78;69.84;99205.56;4960849;28;45376;-47
2021/12/10 09:10:16;;;;;;;;;3.00;0.00;;;;;7.77;69.67;99225.19;4959578;28;45529;-48
2021/12/10 09:12:42;;;;;;;;;2.00;0.50;;;;;7.73;69.79;99203.19;4960905;28;45245;-48
2021/12/10 09:15:10;;;;;;;;;1.00;0.00;;;;;7.73;69.63;99210.31;4960079;28;46455;-47
2021/12/10 09:17:39;;;;;;;;;0.00;0.00;;;;;7.75;69.03;99230.59;4960879;28;45417;-49
2021/12/10 09:20:15;;;;;;;;;0.00;0.00;;;;;7.75;69.52;99221.75;4960524;28;45368;-50
2021/12/10 09:22:42;;;;;;;;;0.00;0.00;;;;;7.75;69.62;99237.75;4960494;28;45201;-46
2021/12/10 09:25:08;;;;;;;;;0.75;0.00;;;;;7.84;69.63;99238.06;4960116;28;45309;-47
2021/12/10 09:27:34;;;;;;;;;3.50;1.00;;;;;7.86;69.17;99238.84;4960368;28;45320;-48
2021/12/10 09:30:00;;;;;;;;;1.00;1.00;;;;;7.90;69.71;99243.06;4960115;28;45347;-48
2021/12/10 09:32:27;;;;;;;;;0.75;0.75;;;;;7.93;69.53;99258.03;4960006;28;45977;-50
2021/12/10 09:34:54;;;;;;;;;2.00;1.25;;;;;7.89;69.11;99252.03;4960253;28;47391;-50
2021/12/10 09:37:22;;;;;;;;;2.00;1.00;;;;;8.03;69.58;99259.19;4960440;28;45259;-48
2021/12/10 09:39:49;;;;;;;;;1.25;0.50;;;;;8.05;68.75;99259.97;4960210;28;45298;-49
2021/12/10 09:42:16;;;;;;;;;1.75;1.00;;;;;8.15;68.70;99261.16;4960366;28;45537;-46
2021/12/10 09:44:42;;;;;;;;;0.00;0.00;;;;;8.20;68.22;99260.88;4960269;28;45459;-50
2021/12/10 09:47:14;;;;;;;;;1.25;1.00;;;;;8.28;68.58;99280.81;4959810;28;45319;-50
2021/12/10 09:49:43;;;;;;;;;2.50;1.00;;;;;8.35;68.08;99276.00;4960206;28;45361;-48
2021/12/10 09:52:10;;;;;;;;;2.00;0.00;;;;;8.37;67.61;99276.78;4960275;28;45335;-47
2021/12/10 09:54:36;;;;;;;;;2.00;0.25;;;;;8.43;67.54;99295.09;4959592;28;46155;-47
2021/12/10 09:57:10;;;;;;;;;1.50;1.00;;;;;8.42;67.58;99290.69;4960099;28;45470;-47
2021/12/10 09:59:37;;;;;;;;;2.00;1.00;;;;;8.41;66.99;99289.00;4960182;28;45302;-46
2021/12/10 10:02:06;;;;;;;;;1.00;1.00;;;;;8.38;66.43;99310.53;4959596;28;45477;-50
2021/12/10 10:04:35;;;;;;;;;0.00;0.00;;;;;8.38;66.93;99299.84;4959443;28;47332;-47
2021/12/10 10:07:07;;;;;;;;;1.00;1.00;;;;;8.40;66.42;99322.00;4959863;28;45328;-50
2021/12/10 10:09:33;;;;;;;;;3.00;1.00;;;;;8.45;66.49;99325.25;4959710;28;45548;-49
2021/12/10 10:12:06;;;;;;;;;3.75;0.75;;;;;8.50;66.53;99319.63;4959586;28;45399;-50
2021/12/10 10:14:32;;;;;;;;;1.00;1.00;;;;;8.54;66.52;99318.47;4959869;28;46571;-47
2021/12/10 10:16:57;;;;;;;;;2.00;1.00;;;;;8.46;65.83;99316.28;4959761;28;45329;-50
2021/12/10 10:19:23;;;;;;;;;1.75;1.00;;;;;8.50;65.73;99333.84;4959920;28;45331;-49
2021/12/10 10:21:53;;;;;;;;;3.00;1.00;;;;;8.52;66.02;99331.06;4960422;28;45263;-50
2021/12/10 10:24:19;;;;;;;;;4.00;1.00;;;;;8.54;65.60;99324.69;4963007;28;46369;-50
2021/12/10 10:27:08;;;;;;;;;6.50;2.00;;;;;8.56;65.36;99340.63;4963004;28;45432;-52
2021/12/10 10:29:39;;;;;;;;;5.00;1.75;;;;;8.59;64.88;99335.94;4963301;28;45418;-46
2021/12/10 10:32:16;;;;;;;;;0.75;0.25;;;;;8.56;64.29;99341.50;4962781;28;45385;-47
2021/12/10 10:34:48;;;;;;;;;1.00;1.00;;;;;8.63;64.57;99350.00;4962872;28;46377;-48
2021/12/10 10:37:13;;;;;;;;;5.00;1.50;;;;;8.66;64.15;99342.66;4962198;28;45259;-49
2021/12/10 10:39:41;;;;;;;;;1.00;0.00;;;;;8.77;63.30;99357.16;4962242;28;45311;-50
2021/12/10 10:42:12;;;;;;;;;0.75;0.50;;;;;8.83;63.51;99360.34;4961554;28;45438;-49
2021/12/10 10:44:38;;;;;;;;;2.00;1.00;;;;;8.91;63.43;99374.09;4961853;28;46594;-49
2021/12/10 10:47:04;;;;;;;;;2.00;1.00;;;;;8.89;62.49;99354.63;4961303;28;45413;-46
2021/12/10 10:49:35;;;;;;;;;1.50;1.00;;;;;8.97;63.22;99370.19;4962644;28;45272;-46
2021/12/10 10:52:20;;;;;;;;;5.00;1.00;;;;;9.02;62.12;99370.75;4961665;28;45450;-46
2021/12/10 10:54:47;;;;;;;;;3.75;1.00;;;;;9.03;60.88;99381.34;4962138;28;46392;-51
2021/12/10 10:57:24;;;;;;;;;2.50;0.50;;;;;9.14;60.96;99380.69;4962841;28;45497;-49
2021/12/10 10:59:57;;;;;;;;;0.25;0.00;;;;;9.16;60.90;99378.78;4961980;28;45403;-48
2021/12/10 11:02:25;;;;;;;;;1.00;1.00;;;;;9.21;60.89;99397.22;4961434;28;45913;-48
2021/12/10 11:04:52;;;;;;;;;3.00;1.75;;;;;9.26;59.26;99385.31;4961635;28;46962;-46
2021/12/10 11:07:26;;;;;;;;;0.50;0.50;;;;;9.40;59.68;99373.72;4962153;28;45380;-47
2021/12/10 11:10:02;;;;;;;;;2.00;0.75;;;;;9.69;59.65;99394.16;4961698;28;45411;-49
2021/12/10 11:12:36;;;;;;;;;1.75;1.25;;;;;10.03;57.86;99398.19;4960070;28;45896;-47
2021/12/10 11:15:08;;;;;;;;;0.75;0.75;;;;;10.28;58.44;99410.00;4960005;28;46195;-47
2021/12/10 11:17:42;;;;;;;;;2.75;1.75;;;;;10.29;55.89;99409.91;4960429;28;45352;-47
2021/12/10 11:20:23;;;;;;;;;0.75;0.75;;;;;10.25;56.51;99413.75;4962476;28;45231;-49
2021/12/10 11:22:59;;;;;;;;;0.00;0.00;;;;;10.31;57.98;99428.53;4960918;28;45694;-47
2021/12/10 11:25:31;;;;;;;;;1.25;1.25;;;;;10.17;55.50;99427.66;4961699;28;46274;-49
2021/12/10 11:28:09;;;;;;;;;3.00;0.00;;;;;10.12;56.57;99428.88;4961250;28;45384;-50
2021/12/10 11:30:41;;;;;;;;;7.50;1.00;;;;;10.02;56.59;99444.69;4950165;28;45446;-46
2021/12/10 11:33:20;;;;;;;;;7.00;1.00;;;;;9.91;55.96;99411.50;4959632;28;45864;-48
2021/12/10 11:36:11;;;;;;;;;4.75;1.00;;;;;10.01;55.35;99436.72;4961515;28;46424;-49
2021/12/10 11:38:37;;;;;;;;;0.25;0.25;;;;;9.98;55.97;99437.78;4961595;28;45458;-48
2021/12/10 11:41:07;;;;;;;;;1.25;0.25;;;;;9.99;56.42;99436.81;4960336;28;45266;-50
2021/12/10 11:46:51;;;;;;;;;0.00;0.00;;;;;9.92;56.07;99451.56;4961698;28;45270;-47
2021/12/10 11:49:22;;;;;;;;;1.25;1.00;;;;;9.85;54.77;99451.09;4962084;28;45443;-48
2021/12/10 11:51:59;;;;;;;;;2.25;1.00;;;;;9.82;55.93;99451.28;4962176;28;45232;-47
2021/12/10 11:54:30;;;;;;;;;1.00;0.00;;;;;9.76;54.83;99446.34;4960275;28;45332;-49
2021/12/10 11:57:13;;;;;;;;;0.00;0.00;;;;;9.71;55.02;99463.63;4961736;28;46549;-47
2021/12/10 11:59:48;;;;;;;;;1.50;0.25;;;;;9.71;54.05;99480.53;4962159;28;45489;-46
2021/12/10 12:02:21;;;;;;;;;1.25;0.25;;;;;9.73;54.66;99481.31;4961917;28;45362;-46
2021/12/10 12:04:52;;;;;;;;;4.00;1.00;;;;;9.67;53.63;99480.84;4961666;28;46085;-49
2021/12/10 12:07:40;;;;;;;;;3.00;1.25;;;;;9.72;54.01;99489.44;4961593;28;46046;-51
2021/12/10 12:10:24;;;;;;;;;1.75;0.00;;;;;9.77;53.72;99503.41;4961700;28;45370;-51
2021/12/10 12:12:55;;;;;;;;;0.25;0.25;;;;;9.83;54.13;99506.53;4961794;28;45244;-50
2021/12/10 12:15:30;;;;;;;;;3.25;0.25;;;;;9.92;53.11;99498.91;4961364;28;45987;-51
2021/12/10 12:18:02;;;;;;;;;1.75;1.00;;;;;9.88;52.42;99512.47;4961763;28;46442;-49
2021/12/10 12:20:44;;;;;;;;;1.00;0.00;;;;;9.73;53.09;99525.94;4961433;28;45426;-48
2021/12/10 12:26:26;;;;;;;;;0.00;0.00;;;;;9.66;53.73;99522.78;4961583;28;45326;-45
2021/12/10 12:28:52;;;;;;;;;2.00;1.00;;;;;9.65;52.40;99522.88;4961247;28;47222;-49
2021/12/10 12:31:26;;;;;;;;;3.50;1.00;;;;;9.76;52.77;99534.66;4961049;28;45353;-50
2021/12/10 12:33:58;;;;;;;;;0.00;0.00;;;;;9.73;51.84;99523.25;4961590;28;45372;-49
2021/12/10 12:36:40;;;;;;;;;1.25;0.00;;;;;9.69;52.56;99525.28;4961273;28;45554;-48
2021/12/10 12:39:39;;;;;;;;;0.00;0.00;;;;;9.82;52.53;99523.56;4961057;28;47489;-49
2021/12/10 12:42:20;;;;;;;;;2.25;1.00;;;;;9.89;52.89;99524.03;4961270;28;45700;-47
2021/12/10 12:44:49;;;;;;;;;4.25;1.00;;;;;9.95;52.38;99521.00;4959866;28;45285;-46
2021/12/10 12:47:42;;;;;;;;;5.50;0.00;;;;;9.89;52.74;99566.84;4961492;28;45347;-47
2021/12/10 12:50:12;;;;;;;;;0.50;0.50;;;;;9.78;53.71;99564.00;4956444;28;45520;-47
2021/12/10 12:52:41;;;;;;;;;2.00;0.00;;;;;9.62;55.41;99576.56;4955126;28;45346;-48
2021/12/10 12:55:13;;;;;;;;;2.00;0.00;;;;;9.48;55.59;99570.25;4952826;28;45632;-47
2021/12/10 12:57:49;;;;;;;;;2.00;1.00;;;;;9.30;55.50;99578.50;4960854;28;45325;-47
2021/12/10 13:00:25;;;;;;;;;1.75;0.00;;;;;9.19;56.25;99571.09;4960533;28;46166;-46
2021/12/10 13:02:56;;;;;;;;;2.00;1.00;;;;;9.19;56.39;99567.56;4960591;28;45434;-48
2021/12/10 13:06:05;;;;;;;;;0.00;0.00;;;;;9.20;55.95;99577.31;4960618;28;45392;-49
2021/12/10 13:08:34;;;;;;;;;0.75;0.00;;;;;9.13;55.33;99581.31;4951055;28;45672;-47
2021/12/10 13:11:18;;;;;;;;;1.00;1.00;;;;;9.09;55.80;99583.31;4960128;28;46471;-49
2021/12/10 13:14:00;;;;;;;;;1.00;1.00;;;;;9.13;55.38;99592.88;4958719;28;45467;-48
2021/12/10 13:16:40;;;;;;;;;0.25;0.25;;;;;9.11;55.14;99589.41;4959230;28;45401;-48
2021/12/10 13:19:08;;;;;;;;;3.00;1.00;;;;;9.08;55.30;99590.47;4958853;28;46081;-46
2021/12/10 13:21:34;;;;;;;;;1.75;0.00;;;;;9.10;55.25;99611.78;4958233;28;46261;-47
2021/12/10 13:24:00;;;;;;;;;1.50;0.25;;;;;9.14;54.80;99610.63;4958425;28;45790;-50
2021/12/10 13:26:26;;;;;;;;;2.00;0.00;;;;;9.13;55.43;99586.66;4960628;28;45324;-48
2021/12/10 13:28:51;;;;;;;;;3.25;0.50;;;;;9.34;54.59;99610.34;4960188;28;45488;-49
2021/12/10 13:31:19;;;;;;;;;1.00;0.00;;;;;9.44;54.37;99606.16;4959967;28;45936;-47
2021/12/10 13:33:46;;;;;;;;;0.50;0.00;;;;;9.51;54.58;99600.47;4958027;28;45233;-50
2021/12/10 13:36:14;;;;;;;;;1.75;0.00;;;;;9.57;53.93;99618.81;4960282;28;45359;-49
2021/12/10 13:38:41;;;;;;;;;0.50;0.50;;;;;9.53;52.16;99610.09;4957835;28;45921;-47
2021/12/10 13:41:10;;;;;;;;;0.00;0.00;;;;;9.54;53.09;99625.19;4959987;28;45402;-48
2021/12/10 13:43:39;;;;;;;;;0.00;0.00;;;;;9.49;51.93;99632.66;4960363;28;45411;-48
2021/12/10 13:46:11;;;;;;;;;0.75;0.00;;;;;9.50;52.85;99655.78;4959925;28;45463;-46
2021/12/10 13:48:48;;;;;;;;;1.50;0.00;;;;;9.58;53.57;99648.16;4959629;28;45405;-50
2021/12/10 13:51:17;;;;;;;;;0.50;0.50;;;;;9.54;52.67;99633.22;4959931;28;46176;-46
2021/12/10 13:54:07;;;;;;;;;0.00;0.00;;;;;9.48;52.21;99663.88;4960007;28;45179;-49
2021/12/10 13:56:35;;;;;;;;;2.00;1.00;;;;;9.42;52.35;99666.06;4962014;28;45393;-49
2021/12/10 13:59:05;;;;;;;;;0.00;0.00;;;;;9.37;52.24;99657.44;4963292;28;45422;-47
2021/12/10 14:01:40;;;;;;;;;0.00;0.00;;;;;9.47;52.56;99680.03;4963143;28;46219;-48
2021/12/10 14:04:13;;;;;;;;;2.25;1.00;;;;;9.59;52.04;99673.97;4962652;28;45461;-49
2021/12/10 14:06:47;;;;;;;;;2.00;0.00;;;;;9.68;52.00;99684.13;4963681;28;45283;-49
2021/12/10 14:12:15;;;;;;;;;0.00;0.00;;;;;9.66;51.53;99685.16;4962917;28;45988;-47
2021/12/10 14:14:50;;;;;;;;;1.00;0.00;;;;;9.70;51.31;99692.91;4963406;28;45293;-47
2021/12/10 14:17:25;;;;;;;;;0.00;0.00;;;;;9.82;50.10;99704.72;4961248;28;45799;-46
2021/12/10 14:19:52;;;;;;;;;1.00;0.00;;;;;10.18;50.56;99701.69;4963156;28;45378;-47
2021/12/10 14:22:54;;;;;;;;;1.00;0.00;;;;;10.68;49.40;99709.28;4963173;28;46625;-50
2021/12/10 14:25:36;;;;;;;;;1.00;1.00;;;;;10.97;49.07;99710.94;4963183;28;45390;-49
2021/12/10 14:28:13;;;;;;;;;0.00;0.00;;;;;10.94;48.06;99703.13;4963179;28;45449;-48
2021/12/10 14:30:47;;;;;;;;;0.00;0.00;;;;;10.86;48.77;99718.84;4961249;28;47045;-49
2021/12/10 14:33:32;;;;;;;;;0.00;0.00;;;;;10.71;48.47;99694.81;4963057;28;45535;-49
2021/12/10 14:36:03;;;;;;;;;0.00;0.00;;;;;10.58;48.79;99743.81;4963489;28;45380;-48
2021/12/10 14:38:32;;;;;;;;;0.00;0.00;;;;;10.43;48.75;99731.38;4962920;28;45322;-49
2021/12/10 14:41:05;;;;;;;;;0.00;0.00;;;;;10.26;49.66;99746.75;4962593;28;46451;-47
2021/12/10 14:43:39;;;;;;;;;0.25;0.00;;;;;10.13;49.43;99751.94;4962959;28;45384;-47
2021/12/10 14:46:19;;;;;;;;;3.00;0.00;;;;;9.99;49.86;99757.25;4962348;28;45339;-46
2021/12/10 14:49:09;;;;;;;;;0.00;0.00;;;;;9.80;50.21;99769.03;4962904;28;45529;-46
2021/12/10 14:51:37;;;;;;;;;0.00;0.00;;;;;9.72;50.25;99776.66;4962702;28;45384;-47
2021/12/10 14:54:15;;;;;;;;;2.00;0.00;;;;;9.63;51.38;99774.50;4961994;28;46437;-48
2021/12/10 14:56:48;;;;;;;;;2.00;0.25;;;;;9.57;51.25;99771.31;4960746;28;45371;-48
2021/12/10 14:59:22;;;;;;;;;2.00;0.00;;;;;9.54;51.36;99779.53;4962581;28;45321;-46
2021/12/10 15:02:06;;;;;;;;;2.50;0.75;;;;;9.44;51.11;99780.03;4962372;28;45358;-47
2021/12/10 15:04:44;;;;;;;;;1.00;1.00;;;;;9.38;51.65;99785.75;4961991;28;45279;-48
2021/12/10 15:07:12;;;;;;;;;0.00;0.00;;;;;9.21;51.11;99784.97;4961580;28;45406;-48
2021/12/10 15:10:06;;;;;;;;;0.75;0.00;;;;;9.17;52.27;99791.44;4962163;28;45199;-46
2021/12/10 15:12:50;;;;;;;;;0.00;0.00;;;;;9.12;52.70;99786.31;4962304;28;45629;-48
2021/12/10 15:15:16;;;;;;;;;0.00;0.00;;;;;9.15;52.31;99798.66;4962158;28;45323;-48
2021/12/10 15:17:42;;;;;;;;;1.00;0.00;;;;;9.11;52.22;99814.00;4962376;28;45487;-47
2021/12/10 15:20:22;;;;;;;;;2.00;1.00;;;;;9.10;51.93;99801.63;4961913;28;45350;-46
2021/12/10 15:22:47;;;;;;;;;1.50;0.00;;;;;9.06;52.37;99800.91;4962076;28;45271;-50
2021/12/10 15:25:21;;;;;;;;;0.00;0.00;;;;;9.03;52.92;99813.56;4962116;28;45550;-48
2021/12/10 15:27:50;;;;;;;;;1.00;1.00;;;;;9.04;52.55;99820.63;4962160;28;45339;-46
2021/12/10 15:30:23;;;;;;;;;1.75;0.00;;;;;9.08;52.95;99828.44;4961988;28;45474;-47
2021/12/10 15:32:56;;;;;;;;;4.00;0.00;;;;;9.02;52.84;99825.19;4961728;28;46756;-48
2021/12/10 15:35:25;;;;;;;;;3.25;1.00;;;;;8.99;53.55;99838.75;4961657;28;46001;-47
2021/12/10 15:38:02;;;;;;;;;1.50;0.00;;;;;8.95;53.58;99840.72;4961808;28;45403;-47
2021/12/10 15:40:43;;;;;;;;;0.00;0.00;;;;;8.85;54.00;99844.81;4962251;28;45204;-45
2021/12/10 15:43:22;;;;;;;;;6.75;1.00;;;;;8.84;54.21;99856.47;4961864;28;46354;-46
2021/12/10 15:45:51;;;;;;;;;0.00;0.00;;;;;8.82;53.87;99857.50;4961806;28;45253;-47
2021/12/10 15:48:19;;;;;;;;;2.50;0.00;;;;;8.83;54.24;99859.22;4962006;28;45291;-47
2021/12/10 15:50:49;;;;;;;;;0.75;0.00;;;;;8.82;54.45;99862.84;4961959;28;45373;-47
2021/12/10 15:53:16;;;;;;;;;0.50;0.50;;;;;8.80;54.48;99878.94;4960760;28;45457;-50
2021/12/10 15:55:48;;;;;;;;;0.25;0.00;;;;;8.75;54.62;99883.69;4961621;28;46704;-45
2021/12/10 15:58:17;;;;;;;;;0.00;0.00;;;;;8.81;54.47;99890.50;4961905;28;45323;-48
2021/12/10 16:00:46;;;;;;;;;0.25;0.25;;;;;8.76;55.12;99890.75;4961693;28;45287;-45
2021/12/10 16:03:13;;;;;;;;;3.50;1.75;;;;;8.77;54.77;99894.28;4961827;28;45319;-47
2021/12/10 16:05:40;;;;;;;;;1.00;1.00;;;;;8.77;55.13;99899.63;4961414;28;47287;-47
2021/12/10 16:08:06;;;;;;;;;0.00;0.00;;;;;8.77;55.33;99892.47;4960511;28;45315;-48
2021/12/10 16:10:40;;;;;;;;;5.50;0.50;;;;;8.83;55.42;99918.91;4962037;28;45407;-47
2021/12/10 16:13:13;;;;;;;;;1.75;0.50;;;;;8.84;55.23;99903.72;4960313;28;46580;-49
2021/12/10 16:15:46;;;;;;;;;1.00;1.00;;;;;8.85;55.05;99918.78;4961142;28;46199;-47
2021/12/10 16:18:11;;;;;;;;;0.00;0.00;;;;;8.76;54.89;99912.16;4961358;28;45403;-47
2021/12/10 16:20:44;;;;;;;;;1.50;0.50;;;;;8.78;55.26;99918.25;4961554;28;45276;-49
2021/12/10 16:23:23;;;;;;;;;1.75;0.75;;;;;8.81;55.45;99933.28;4961148;28;45377;-47
2021/12/10 16:25:55;;;;;;;;;1.50;0.25;;;;;8.82;55.21;99927.84;4960768;28;48216;-49
2021/12/10 16:28:21;;;;;;;;;0.75;0.75;;;;;8.79;55.13;99932.47;4961127;28;45362;-47
2021/12/10 16:30:50;;;;;;;;;5.50;1.00;;;;;8.75;55.21;99939.81;4960952;28;45402;-46
2021/12/10 16:33:16;;;;;;;;;1.00;1.00;;;;;8.72;54.86;99937.28;4961169;28;45282;-47
2021/12/10 16:35:49;;;;;;;;;0.00;0.00;;;;;8.71;55.15;99936.41;4961167;28;46365;-47
2021/12/10 16:38:17;;;;;;;;;2.00;1.00;;;;;8.67;54.74;99931.31;4959720;28;45546;-46
2021/12/10 16:41:02;;;;;;;;;1.00;1.00;;;;;8.68;55.19;99955.25;4961066;28;45272;-47
2021/12/10 16:43:32;;;;;;;;;1.75;1.75;;;;;8.62;55.41;99962.72;4960983;28;45317;-47
2021/12/10 16:45:58;;;;;;;;;1.00;1.00;;;;;8.54;55.27;99957.78;4961031;28;45514;-46
2021/12/10 16:48:28;;;;;;;;;4.75;1.00;;;;;8.50;55.80;99952.69;4961133;28;45252;-51
2021/12/10 16:50:57;;;;;;;;;0.75;0.00;;;;;8.61;55.55;99988.56;4961241;28;45463;-49
2021/12/10 16:53:35;;;;;;;;;0.00;0.00;;;;;8.53;56.52;99960.50;4960881;28;45232;-47
2021/12/10 16:56:03;;;;;;;;;2.25;0.00;;;;;8.58;55.79;99983.41;4960981;28;45327;-49
2021/12/10 16:58:28;;;;;;;;;1.00;1.00;;;;;8.59;56.37;99984.28;4960149;28;45376;-48
2021/12/10 17:00:58;;;;;;;;;1.75;1.00;;;;;8.59;56.18;99992.28;4960791;28;45566;-47
2021/12/10 17:03:30;;;;;;;;;3.25;1.00;;;;;8.55;56.21;99999.59;4961015;28;45445;-46
2021/12/10 17:05:56;;;;;;;;;1.00;1.00;;;;;8.52;56.32;99994.38;4960585;28;46159;-47
2021/12/10 17:08:25;;;;;;;;;2.00;0.00;;;;;8.46;56.09;100005.38;4960396;28;45286;-47
2021/12/10 17:10:53;;;;;;;;;1.50;0.00;;;;;8.40;56.46;99994.13;4960962;28;45323;-49
2021/12/10 17:13:31;;;;;;;;;1.25;1.00;;;;;8.43;56.99;100012.66;4960135;28;45345;-48
2021/12/10 17:15:58;;;;;;;;;2.00;0.50;;;;;8.39;56.80;100013.75;4960519;28;46658;-47
2021/12/10 17:18:26;;;;;;;;;3.25;1.00;;;;;8.40;56.32;100037.72;4960461;28;45262;-47
2021/12/10 17:20:59;;;;;;;;;2.00;0.75;;;;;8.39;56.94;100027.13;4960193;28;45439;-49
2021/12/10 17:23:26;;;;;;;;;1.00;1.00;;;;;8.37;57.24;100029.00;4959900;28;45382;-47
2021/12/10 17:26:00;;;;;;;;;3.00;1.00;;;;;8.28;56.80;100031.13;4960273;28;46272;-48
2021/12/10 17:28:29;;;;;;;;;2.00;0.75;;;;;8.33;57.22;100058.53;4959997;28;45371;-47
2021/12/10 17:31:02;;;;;;;;;3.00;1.75;;;;;8.33;56.95;100044.31;4959617;28;45436;-47
2021/12/10 17:33:33;;;;;;;;;7.00;1.00;;;;;8.31;57.21;100060.41;4959925;28;46417;-46
2021/12/10 17:36:04;;;;;;;;;0.75;0.75;;;;;8.26;57.08;100048.16;4959871;28;46296;-47
2021/12/10 17:38:31;;;;;;;;;2.00;0.75;;;;;8.30;57.31;100080.00;4960069;28;45250;-49